sensor_id;sensor_type;location;lat;lon;timestamp;temperature;humidity
12111;DHT22;6119;52.372;8.990;2023-09-19T00:01:22;18.00;99.90
12111;DHT22;6119;52.372;8.990;2023-09-19T00:04:11;18.00;99.90
12111;DHT22;6119;52.372;8.990;2023-09-19T00:06:58;18.00;99.90
12111;DHT22;6119;52.372;8.990;2023-09-19T00:09:44;17.80;99.90
12111;DHT22;6119;52.372;8.990;2023-09-19T00:12:32;18.00;99.90
12111;DHT22;6119;52.372;8.990;2023-09-19T00:15:18;17.80;99.90
12111;DHT22;6119;52.372;8.990;2023-09-19T00:18:06;17.90;99.90
12111;DHT22;6119;52.372;8.990;2023-09-19T00:20:58;17.80;99.90
12111;DHT22;6119;52.372;8.990;2023-09-19T00:23:45;17.80;99.90
12111;DHT22;6119;52.372;8.990;2023-09-19T00:26:32;17.80;99.90
12111;DHT22;6119;52.372;8.990;2023-09-19T00:29:20;17.80;99.90
12111;DHT22;6119;52.372;8.990;2023-09-19T00:32:07;17.80;99.90
12111;DHT22;6119;52.372;8.990;2023-09-19T00:34:54;17.70;99.90
12111;DHT22;6119;52.372;8.990;2023-09-19T00:37:42;17.80;99.90
12111;DHT22;6119;52.372;8.990;2023-09-19T00:40:30;17.80;99.90
12111;DHT22;6119;52.372;8.990;2023-09-19T00:43:18;17.70;99.90
12111;DHT22;6119;52.372;8.990;2023-09-19T00:46:05;17.70;99.90
12111;DHT22;6119;52.372;8.990;2023-09-19T00:48:53;17.70;99.90
12111;DHT22;6119;52.372;8.990;2023-09-19T00:51:40;17.60;99.90
12111;DHT22;6119;52.372;8.990;2023-09-19T00:54:32;17.70;99.90
12111;DHT22;6119;52.372;8.990;2023-09-19T00:57:19;17.70;99.90
12111;DHT22;6119;52.372;8.990;2023-09-19T01:00:09;17.60;99.90
12111;DHT22;6119;52.372;8.990;2023-09-19T01:03:00;17.70;99.90
12111;DHT22;6119;52.372;8.990;2023-09-19T01:05:47;17.60;99.90
12111;DHT22;6119;52.372;8.990;2023-09-19T01:08:34;17.70;99.90
12111;DHT22;6119;52.372;8.990;2023-09-19T01:11:31;17.70;99.90
12111;DHT22;6119;52.372;8.990;2023-09-19T01:14:25;17.70;99.90
12111;DHT22;6119;52.372;8.990;2023-09-19T01:17:24;17.60;99.90
12111;DHT22;6119;52.372;8.990;2023-09-19T01:20:21;17.60;99.90
12111;DHT22;6119;52.372;8.990;2023-09-19T01:23:16;17.70;99.90
12111;DHT22;6119;52.372;8.990;2023-09-19T01:26:10;17.70;99.90
12111;DHT22;6119;52.372;8.990;2023-09-19T01:29:13;17.70;99.90
12111;DHT22;6119;52.372;8.990;2023-09-19T01:32:08;17.70;99.90
12111;DHT22;6119;52.372;8.990;2023-09-19T01:34:56;17.70;99.90
12111;DHT22;6119;52.372;8.990;2023-09-19T01:37:49;17.70;99.90
12111;DHT22;6119;52.372;8.990;2023-09-19T01:40:41;17.70;99.90
12111;DHT22;6119;52.372;8.990;2023-09-19T01:43:32;17.70;99.90
12111;DHT22;6119;52.372;8.990;2023-09-19T01:46:24;17.60;99.90
12111;DHT22;6119;52.372;8.990;2023-09-19T01:49:22;17.60;99.90
12111;DHT22;6119;52.372;8.990;2023-09-19T01:52:11;17.50;99.90
12111;DHT22;6119;52.372;8.990;2023-09-19T01:55:06;17.50;99.90
12111;DHT22;6119;52.372;8.990;2023-09-19T01:58:01;17.50;99.90
12111;DHT22;6119;52.372;8.990;2023-09-19T02:00:50;17.30;99.90
12111;DHT22;6119;52.372;8.990;2023-09-19T02:03:38;17.30;99.90
12111;DHT22;6119;52.372;8.990;2023-09-19T02:06:28;17.30;99.90
12111;DHT22;6119;52.372;8.990;2023-09-19T02:09:15;17.30;99.90
12111;DHT22;6119;52.372;8.990;2023-09-19T02:12:02;17.20;99.90
12111;DHT22;6119;52.372;8.990;2023-09-19T02:14:50;17.10;99.90
12111;DHT22;6119;52.372;8.990;2023-09-19T02:17:36;17.10;99.90
12111;DHT22;6119;52.372;8.990;2023-09-19T02:20:23;17.20;99.90
12111;DHT22;6119;52.372;8.990;2023-09-19T02:23:13;17.20;99.90
12111;DHT22;6119;52.372;8.990;2023-09-19T02:26:00;17.20;99.90
12111;DHT22;6119;52.372;8.990;2023-09-19T02:28:47;17.20;99.90
12111;DHT22;6119;52.372;8.990;2023-09-19T02:31:34;17.20;99.90
12111;DHT22;6119;52.372;8.990;2023-09-19T02:34:21;17.30;99.90
12111;DHT22;6119;52.372;8.990;2023-09-19T02:37:08;17.20;99.90
12111;DHT22;6119;52.372;8.990;2023-09-19T02:39:56;17.20;99.90
12111;DHT22;6119;52.372;8.990;2023-09-19T02:42:43;17.20;99.90
12111;DHT22;6119;52.372;8.990;2023-09-19T02:45:32;17.20;99.90
12111;DHT22;6119;52.372;8.990;2023-09-19T02:48:19;17.20;99.90
12111;DHT22;6119;52.372;8.990;2023-09-19T02:51:06;17.20;99.90
12111;DHT22;6119;52.372;8.990;2023-09-19T02:53:53;17.10;99.90
12111;DHT22;6119;52.372;8.990;2023-09-19T02:56:41;17.20;99.90
12111;DHT22;6119;52.372;8.990;2023-09-19T02:59:28;17.30;99.90
12111;DHT22;6119;52.372;8.990;2023-09-19T03:02:16;17.20;99.90
12111;DHT22;6119;52.372;8.990;2023-09-19T03:05:05;17.20;99.90
12111;DHT22;6119;52.372;8.990;2023-09-19T03:07:53;17.20;99.90
12111;DHT22;6119;52.372;8.990;2023-09-19T03:10:41;17.20;99.90
12111;DHT22;6119;52.372;8.990;2023-09-19T03:13:29;17.30;99.90
12111;DHT22;6119;52.372;8.990;2023-09-19T03:16:16;17.10;99.90
12111;DHT22;6119;52.372;8.990;2023-09-19T03:19:04;17.10;99.90
12111;DHT22;6119;52.372;8.990;2023-09-19T03:21:50;17.10;99.90
12111;DHT22;6119;52.372;8.990;2023-09-19T03:24:37;17.10;99.90
12111;DHT22;6119;52.372;8.990;2023-09-19T03:27:24;17.10;99.90
12111;DHT22;6119;52.372;8.990;2023-09-19T03:30:12;17.10;99.90
12111;DHT22;6119;52.372;8.990;2023-09-19T03:32:59;17.20;99.90
12111;DHT22;6119;52.372;8.990;2023-09-19T03:35:52;17.10;99.90
12111;DHT22;6119;52.372;8.990;2023-09-19T03:38:39;17.20;99.90
12111;DHT22;6119;52.372;8.990;2023-09-19T03:41:25;17.10;99.90
12111;DHT22;6119;52.372;8.990;2023-09-19T03:44:12;17.10;99.90
12111;DHT22;6119;52.372;8.990;2023-09-19T03:47:00;17.00;99.90
12111;DHT22;6119;52.372;8.990;2023-09-19T03:49:47;17.00;99.90
12111;DHT22;6119;52.372;8.990;2023-09-19T03:52:33;17.00;99.90
12111;DHT22;6119;52.372;8.990;2023-09-19T03:55:20;16.90;99.90
12111;DHT22;6119;52.372;8.990;2023-09-19T03:58:06;17.00;99.90
12111;DHT22;6119;52.372;8.990;2023-09-19T04:00:55;16.90;99.90
12111;DHT22;6119;52.372;8.990;2023-09-19T04:03:43;16.80;99.90
12111;DHT22;6119;52.372;8.990;2023-09-19T04:06:33;16.80;99.90
12111;DHT22;6119;52.372;8.990;2023-09-19T04:09:20;16.70;99.90
12111;DHT22;6119;52.372;8.990;2023-09-19T04:12:07;16.60;99.90
12111;DHT22;6119;52.372;8.990;2023-09-19T04:14:55;16.70;99.90
12111;DHT22;6119;52.372;8.990;2023-09-19T04:17:41;16.60;99.90
12111;DHT22;6119;52.372;8.990;2023-09-19T04:20:30;16.60;99.90
12111;DHT22;6119;52.372;8.990;2023-09-19T04:23:17;16.60;99.90
12111;DHT22;6119;52.372;8.990;2023-09-19T04:26:05;16.60;99.90
12111;DHT22;6119;52.372;8.990;2023-09-19T04:28:51;16.60;99.90
12111;DHT22;6119;52.372;8.990;2023-09-19T04:31:38;16.40;99.90
12111;DHT22;6119;52.372;8.990;2023-09-19T04:34:26;16.50;99.90
12111;DHT22;6119;52.372;8.990;2023-09-19T04:37:14;16.50;99.90
12111;DHT22;6119;52.372;8.990;2023-09-19T04:40:01;16.50;99.90
12111;DHT22;6119;52.372;8.990;2023-09-19T04:42:53;16.40;99.90
12111;DHT22;6119;52.372;8.990;2023-09-19T04:45:41;16.50;99.90
12111;DHT22;6119;52.372;8.990;2023-09-19T04:48:28;16.40;99.90
12111;DHT22;6119;52.372;8.990;2023-09-19T04:51:15;16.50;99.90
12111;DHT22;6119;52.372;8.990;2023-09-19T04:54:06;18.20;99.90
12111;DHT22;6119;52.372;8.990;2023-09-19T04:56:53;16.50;99.90
12111;DHT22;6119;52.372;8.990;2023-09-19T04:59:39;16.50;99.90
12111;DHT22;6119;52.372;8.990;2023-09-19T05:02:29;16.40;99.90
12111;DHT22;6119;52.372;8.990;2023-09-19T05:05:17;16.30;99.90
12111;DHT22;6119;52.372;8.990;2023-09-19T05:08:05;16.30;99.90
12111;DHT22;6119;52.372;8.990;2023-09-19T05:10:54;16.40;99.90
12111;DHT22;6119;52.372;8.990;2023-09-19T05:13:41;16.40;99.90
12111;DHT22;6119;52.372;8.990;2023-09-19T05:16:29;16.30;99.90
12111;DHT22;6119;52.372;8.990;2023-09-19T05:19:16;16.30;99.90
12111;DHT22;6119;52.372;8.990;2023-09-19T05:22:03;16.30;99.90
12111;DHT22;6119;52.372;8.990;2023-09-19T05:24:52;16.30;99.90
12111;DHT22;6119;52.372;8.990;2023-09-19T05:27:40;16.30;99.90
12111;DHT22;6119;52.372;8.990;2023-09-19T05:30:27;16.30;99.90
12111;DHT22;6119;52.372;8.990;2023-09-19T05:33:15;16.20;99.90
12111;DHT22;6119;52.372;8.990;2023-09-19T05:36:04;16.30;99.90
12111;DHT22;6119;52.372;8.990;2023-09-19T05:38:51;16.30;99.90
12111;DHT22;6119;52.372;8.990;2023-09-19T05:41:38;16.20;99.90
12111;DHT22;6119;52.372;8.990;2023-09-19T05:44:27;16.80;99.90
12111;DHT22;6119;52.372;8.990;2023-09-19T05:47:14;16.10;99.90
12111;DHT22;6119;52.372;8.990;2023-09-19T05:50:00;16.10;99.90
12111;DHT22;6119;52.372;8.990;2023-09-19T05:52:52;16.10;99.90
12111;DHT22;6119;52.372;8.990;2023-09-19T05:55:38;16.10;99.90
12111;DHT22;6119;52.372;8.990;2023-09-19T05:58:25;16.10;99.90
12111;DHT22;6119;52.372;8.990;2023-09-19T06:01:13;16.10;99.90
12111;DHT22;6119;52.372;8.990;2023-09-19T06:04:00;16.10;99.90
12111;DHT22;6119;52.372;8.990;2023-09-19T06:06:47;16.10;99.90
12111;DHT22;6119;52.372;8.990;2023-09-19T06:09:33;16.10;99.90
12111;DHT22;6119;52.372;8.990;2023-09-19T06:12:20;16.10;99.90
12111;DHT22;6119;52.372;8.990;2023-09-19T06:15:07;16.10;99.90
12111;DHT22;6119;52.372;8.990;2023-09-19T06:17:59;16.10;99.90
12111;DHT22;6119;52.372;8.990;2023-09-19T06:20:47;16.10;99.90
12111;DHT22;6119;52.372;8.990;2023-09-19T06:23:37;16.10;99.90
12111;DHT22;6119;52.372;8.990;2023-09-19T06:26:23;16.10;99.90
12111;DHT22;6119;52.372;8.990;2023-09-19T06:29:12;16.10;99.90
12111;DHT22;6119;52.372;8.990;2023-09-19T06:31:59;16.20;99.90
12111;DHT22;6119;52.372;8.990;2023-09-19T06:34:52;16.20;99.90
12111;DHT22;6119;52.372;8.990;2023-09-19T06:37:40;16.20;99.90
12111;DHT22;6119;52.372;8.990;2023-09-19T06:40:27;16.20;99.90
12111;DHT22;6119;52.372;8.990;2023-09-19T06:43:14;16.20;99.90
12111;DHT22;6119;52.372;8.990;2023-09-19T06:46:00;16.30;99.90
12111;DHT22;6119;52.372;8.990;2023-09-19T06:48:47;16.20;99.90
12111;DHT22;6119;52.372;8.990;2023-09-19T06:51:36;16.20;99.90
12111;DHT22;6119;52.372;8.990;2023-09-19T06:54:23;16.30;99.90
12111;DHT22;6119;52.372;8.990;2023-09-19T06:57:11;16.20;99.90
12111;DHT22;6119;52.372;8.990;2023-09-19T06:59:59;16.30;99.90
12111;DHT22;6119;52.372;8.990;2023-09-19T07:02:55;16.30;99.90
12111;DHT22;6119;52.372;8.990;2023-09-19T07:05:42;16.40;99.90
12111;DHT22;6119;52.372;8.990;2023-09-19T07:08:30;16.40;99.90
12111;DHT22;6119;52.372;8.990;2023-09-19T07:11:17;16.50;99.90
12111;DHT22;6119;52.372;8.990;2023-09-19T07:14:05;16.50;99.90
12111;DHT22;6119;52.372;8.990;2023-09-19T07:16:52;16.50;99.90
12111;DHT22;6119;52.372;8.990;2023-09-19T07:19:40;16.50;99.90
12111;DHT22;6119;52.372;8.990;2023-09-19T07:22:26;16.60;99.90
12111;DHT22;6119;52.372;8.990;2023-09-19T07:25:15;16.60;99.90
12111;DHT22;6119;52.372;8.990;2023-09-19T07:28:02;16.60;99.90
12111;DHT22;6119;52.372;8.990;2023-09-19T07:30:49;16.50;99.90
12111;DHT22;6119;52.372;8.990;2023-09-19T07:33:35;16.60;99.90
12111;DHT22;6119;52.372;8.990;2023-09-19T07:36:23;16.50;99.90
12111;DHT22;6119;52.372;8.990;2023-09-19T07:39:09;16.60;99.90
12111;DHT22;6119;52.372;8.990;2023-09-19T07:42:09;16.60;99.90
12111;DHT22;6119;52.372;8.990;2023-09-19T07:44:57;16.60;99.90
12111;DHT22;6119;52.372;8.990;2023-09-19T07:47:45;16.50;99.90
12111;DHT22;6119;52.372;8.990;2023-09-19T07:50:34;16.50;99.90
12111;DHT22;6119;52.372;8.990;2023-09-19T07:53:22;16.50;99.90
12111;DHT22;6119;52.372;8.990;2023-09-19T07:56:09;16.60;99.90
12111;DHT22;6119;52.372;8.990;2023-09-19T07:58:58;16.60;99.90
12111;DHT22;6119;52.372;8.990;2023-09-19T08:01:44;16.60;99.90
12111;DHT22;6119;52.372;8.990;2023-09-19T08:04:33;16.70;99.90
12111;DHT22;6119;52.372;8.990;2023-09-19T08:07:20;16.80;99.90
12111;DHT22;6119;52.372;8.990;2023-09-19T08:10:09;16.90;99.90
12111;DHT22;6119;52.372;8.990;2023-09-19T08:12:57;17.00;99.90
12111;DHT22;6119;52.372;8.990;2023-09-19T08:15:46;17.10;99.90
12111;DHT22;6119;52.372;8.990;2023-09-19T08:18:33;17.00;99.90
12111;DHT22;6119;52.372;8.990;2023-09-19T08:21:20;17.10;99.90
12111;DHT22;6119;52.372;8.990;2023-09-19T08:24:07;17.10;99.90
12111;DHT22;6119;52.372;8.990;2023-09-19T08:26:54;17.10;99.90
12111;DHT22;6119;52.372;8.990;2023-09-19T08:29:41;17.20;99.90
12111;DHT22;6119;52.372;8.990;2023-09-19T08:32:30;17.30;99.90
12111;DHT22;6119;52.372;8.990;2023-09-19T08:35:17;17.30;99.90
12111;DHT22;6119;52.372;8.990;2023-09-19T08:38:05;17.20;99.90
12111;DHT22;6119;52.372;8.990;2023-09-19T08:40:52;17.20;99.90
12111;DHT22;6119;52.372;8.990;2023-09-19T08:43:38;17.30;99.90
12111;DHT22;6119;52.372;8.990;2023-09-19T08:46:27;17.30;99.90
12111;DHT22;6119;52.372;8.990;2023-09-19T08:49:24;17.30;99.90
12111;DHT22;6119;52.372;8.990;2023-09-19T08:52:20;17.40;99.90
12111;DHT22;6119;52.372;8.990;2023-09-19T08:55:13;17.50;99.90
12111;DHT22;6119;52.372;8.990;2023-09-19T08:58:11;17.50;99.90
12111;DHT22;6119;52.372;8.990;2023-09-19T09:01:01;17.50;99.90
12111;DHT22;6119;52.372;8.990;2023-09-19T09:03:51;17.50;99.90
12111;DHT22;6119;52.372;8.990;2023-09-19T09:06:41;17.60;99.90
12111;DHT22;6119;52.372;8.990;2023-09-19T09:09:29;17.60;99.90
12111;DHT22;6119;52.372;8.990;2023-09-19T09:12:15;17.80;99.90
12111;DHT22;6119;52.372;8.990;2023-09-19T09:15:04;17.70;99.90
12111;DHT22;6119;52.372;8.990;2023-09-19T09:17:51;17.80;99.90
12111;DHT22;6119;52.372;8.990;2023-09-19T09:20:38;17.80;99.90
12111;DHT22;6119;52.372;8.990;2023-09-19T09:23:28;17.90;99.90
12111;DHT22;6119;52.372;8.990;2023-09-19T09:26:15;17.70;99.90
12111;DHT22;6119;52.372;8.990;2023-09-19T09:29:02;17.90;99.90
12111;DHT22;6119;52.372;8.990;2023-09-19T09:31:49;18.00;99.90
12111;DHT22;6119;52.372;8.990;2023-09-19T09:34:36;18.00;99.90
12111;DHT22;6119;52.372;8.990;2023-09-19T09:37:23;18.00;99.90
12111;DHT22;6119;52.372;8.990;2023-09-19T09:40:13;18.10;99.90
12111;DHT22;6119;52.372;8.990;2023-09-19T09:43:26;18.30;99.90
12111;DHT22;6119;52.372;8.990;2023-09-19T09:46:15;18.30;99.90
12111;DHT22;6119;52.372;8.990;2023-09-19T09:49:23;18.20;99.90
12111;DHT22;6119;52.372;8.990;2023-09-19T09:52:12;18.30;99.90
12111;DHT22;6119;52.372;8.990;2023-09-19T09:55:03;18.30;99.90
12111;DHT22;6119;52.372;8.990;2023-09-19T09:58:15;18.40;99.90
12111;DHT22;6119;52.372;8.990;2023-09-19T10:01:04;18.60;99.90
12111;DHT22;6119;52.372;8.990;2023-09-19T10:03:58;18.70;99.90
12111;DHT22;6119;52.372;8.990;2023-09-19T10:06:46;18.70;99.90
12111;DHT22;6119;52.372;8.990;2023-09-19T10:09:45;18.70;99.90
12111;DHT22;6119;52.372;8.990;2023-09-19T10:12:33;18.70;99.90
12111;DHT22;6119;52.372;8.990;2023-09-19T10:15:24;18.60;99.90
12111;DHT22;6119;52.372;8.990;2023-09-19T10:18:16;18.60;99.90
12111;DHT22;6119;52.372;8.990;2023-09-19T10:21:07;18.70;99.90
12111;DHT22;6119;52.372;8.990;2023-09-19T10:23:55;18.70;99.90
12111;DHT22;6119;52.372;8.990;2023-09-19T10:26:45;18.90;99.90
12111;DHT22;6119;52.372;8.990;2023-09-19T10:29:36;19.00;99.90
12111;DHT22;6119;52.372;8.990;2023-09-19T10:32:28;19.00;99.90
12111;DHT22;6119;52.372;8.990;2023-09-19T10:35:20;18.80;99.90
12111;DHT22;6119;52.372;8.990;2023-09-19T10:38:09;18.90;99.90
12111;DHT22;6119;52.372;8.990;2023-09-19T10:40:57;19.10;99.90
12111;DHT22;6119;52.372;8.990;2023-09-19T10:43:48;19.20;99.90
12111;DHT22;6119;52.372;8.990;2023-09-19T10:46:35;19.10;99.90
12111;DHT22;6119;52.372;8.990;2023-09-19T10:49:25;19.20;99.90
12111;DHT22;6119;52.372;8.990;2023-09-19T10:52:13;19.40;99.90
12111;DHT22;6119;52.372;8.990;2023-09-19T10:55:05;19.40;99.90
12111;DHT22;6119;52.372;8.990;2023-09-19T10:57:54;19.40;99.90
12111;DHT22;6119;52.372;8.990;2023-09-19T11:00:53;19.40;99.90
12111;DHT22;6119;52.372;8.990;2023-09-19T11:03:41;19.50;99.90
12111;DHT22;6119;52.372;8.990;2023-09-19T11:06:31;19.50;99.90
12111;DHT22;6119;52.372;8.990;2023-09-19T11:09:19;19.50;99.90
12111;DHT22;6119;52.372;8.990;2023-09-19T11:12:12;19.60;99.90
12111;DHT22;6119;52.372;8.990;2023-09-19T11:14:59;19.40;99.90
12111;DHT22;6119;52.372;8.990;2023-09-19T11:17:46;19.60;99.90
12111;DHT22;6119;52.372;8.990;2023-09-19T11:20:33;19.40;99.90
12111;DHT22;6119;52.372;8.990;2023-09-19T11:23:29;19.40;99.90
12111;DHT22;6119;52.372;8.990;2023-09-19T11:26:40;19.50;99.90
12111;DHT22;6119;52.372;8.990;2023-09-19T11:29:30;19.40;99.90
12111;DHT22;6119;52.372;8.990;2023-09-19T11:35:59;19.60;99.90
12111;DHT22;6119;52.372;8.990;2023-09-19T11:39:00;19.50;99.90
12111;DHT22;6119;52.372;8.990;2023-09-19T11:41:59;19.50;99.90
12111;DHT22;6119;52.372;8.990;2023-09-19T11:44:46;19.50;99.90
12111;DHT22;6119;52.372;8.990;2023-09-19T11:47:38;19.60;99.90
12111;DHT22;6119;52.372;8.990;2023-09-19T11:50:25;19.50;99.90
12111;DHT22;6119;52.372;8.990;2023-09-19T11:53:13;19.50;99.90
12111;DHT22;6119;52.372;8.990;2023-09-19T11:56:06;19.50;99.90
12111;DHT22;6119;52.372;8.990;2023-09-19T11:58:56;19.60;99.90
12111;DHT22;6119;52.372;8.990;2023-09-19T12:01:51;19.90;99.90
12111;DHT22;6119;52.372;8.990;2023-09-19T12:04:44;20.00;99.90
12111;DHT22;6119;52.372;8.990;2023-09-19T12:07:42;19.90;99.90
12111;DHT22;6119;52.372;8.990;2023-09-19T12:10:30;19.90;99.90
12111;DHT22;6119;52.372;8.990;2023-09-19T12:13:18;19.70;99.90
12111;DHT22;6119;52.372;8.990;2023-09-19T12:16:12;19.70;99.90
12111;DHT22;6119;52.372;8.990;2023-09-19T12:19:18;19.70;99.90
12111;DHT22;6119;52.372;8.990;2023-09-19T12:22:06;19.80;99.90
12111;DHT22;6119;52.372;8.990;2023-09-19T12:25:05;19.80;99.90
12111;DHT22;6119;52.372;8.990;2023-09-19T12:27:53;19.80;99.90
12111;DHT22;6119;52.372;8.990;2023-09-19T12:30:42;19.90;99.90
12111;DHT22;6119;52.372;8.990;2023-09-19T12:33:29;19.90;99.90
12111;DHT22;6119;52.372;8.990;2023-09-19T12:36:21;20.00;99.90
12111;DHT22;6119;52.372;8.990;2023-09-19T12:39:23;20.00;99.90
12111;DHT22;6119;52.372;8.990;2023-09-19T12:42:11;20.10;99.90
12111;DHT22;6119;52.372;8.990;2023-09-19T12:45:00;20.00;99.90
12111;DHT22;6119;52.372;8.990;2023-09-19T12:48:20;20.30;99.90
12111;DHT22;6119;52.372;8.990;2023-09-19T12:51:09;20.10;99.90
12111;DHT22;6119;52.372;8.990;2023-09-19T12:53:58;20.30;99.90
12111;DHT22;6119;52.372;8.990;2023-09-19T12:56:46;20.50;99.90
12111;DHT22;6119;52.372;8.990;2023-09-19T12:59:34;20.50;99.90
12111;DHT22;6119;52.372;8.990;2023-09-19T13:02:24;20.70;99.90
12111;DHT22;6119;52.372;8.990;2023-09-19T13:05:13;20.60;99.90
12111;DHT22;6119;52.372;8.990;2023-09-19T13:08:17;20.70;99.90
12111;DHT22;6119;52.372;8.990;2023-09-19T13:11:08;20.70;99.90
12111;DHT22;6119;52.372;8.990;2023-09-19T13:14:15;20.70;99.90
12111;DHT22;6119;52.372;8.990;2023-09-19T13:17:03;20.60;99.90
12111;DHT22;6119;52.372;8.990;2023-09-19T13:19:52;20.70;99.90
12111;DHT22;6119;52.372;8.990;2023-09-19T13:22:43;20.70;99.90
12111;DHT22;6119;52.372;8.990;2023-09-19T13:25:31;20.90;99.90
12111;DHT22;6119;52.372;8.990;2023-09-19T13:28:18;21.10;99.90
12111;DHT22;6119;52.372;8.990;2023-09-19T13:31:05;21.10;99.90
12111;DHT22;6119;52.372;8.990;2023-09-19T13:33:52;21.10;99.90
12111;DHT22;6119;52.372;8.990;2023-09-19T13:36:39;21.30;99.90
12111;DHT22;6119;52.372;8.990;2023-09-19T13:39:27;21.30;99.90
12111;DHT22;6119;52.372;8.990;2023-09-19T13:42:14;21.20;99.90
12111;DHT22;6119;52.372;8.990;2023-09-19T13:45:01;21.10;99.90
12111;DHT22;6119;52.372;8.990;2023-09-19T13:47:49;21.30;99.90
12111;DHT22;6119;52.372;8.990;2023-09-19T13:50:37;21.40;99.90
12111;DHT22;6119;52.372;8.990;2023-09-19T13:53:27;21.60;99.90
12111;DHT22;6119;52.372;8.990;2023-09-19T13:56:16;21.50;99.90
12111;DHT22;6119;52.372;8.990;2023-09-19T13:59:02;21.20;99.90
12111;DHT22;6119;52.372;8.990;2023-09-19T14:01:49;21.40;99.90
12111;DHT22;6119;52.372;8.990;2023-09-19T14:04:36;21.50;99.90
12111;DHT22;6119;52.372;8.990;2023-09-19T14:07:23;21.30;99.90
12111;DHT22;6119;52.372;8.990;2023-09-19T14:10:10;21.00;99.90
12111;DHT22;6119;52.372;8.990;2023-09-19T14:12:59;20.80;99.90
12111;DHT22;6119;52.372;8.990;2023-09-19T14:15:46;20.70;99.90
12111;DHT22;6119;52.372;8.990;2023-09-19T14:18:33;21.00;99.90
12111;DHT22;6119;52.372;8.990;2023-09-19T14:21:20;21.10;99.90
12111;DHT22;6119;52.372;8.990;2023-09-19T14:24:06;21.00;99.90
12111;DHT22;6119;52.372;8.990;2023-09-19T14:26:54;21.00;99.90
12111;DHT22;6119;52.372;8.990;2023-09-19T14:29:43;20.90;99.90
12111;DHT22;6119;52.372;8.990;2023-09-19T14:32:30;20.90;99.90
12111;DHT22;6119;52.372;8.990;2023-09-19T14:35:16;20.80;99.90
12111;DHT22;6119;52.372;8.990;2023-09-19T14:38:03;21.20;99.90
12111;DHT22;6119;52.372;8.990;2023-09-19T14:40:59;21.50;99.90
12111;DHT22;6119;52.372;8.990;2023-09-19T14:43:46;21.60;99.90
12111;DHT22;6119;52.372;8.990;2023-09-19T14:46:35;21.80;99.90
12111;DHT22;6119;52.372;8.990;2023-09-19T14:49:22;21.80;99.90
12111;DHT22;6119;52.372;8.990;2023-09-19T14:52:11;21.80;99.90
12111;DHT22;6119;52.372;8.990;2023-09-19T14:55:01;21.80;99.90
12111;DHT22;6119;52.372;8.990;2023-09-19T14:57:50;21.80;99.90
12111;DHT22;6119;52.372;8.990;2023-09-19T15:00:38;21.70;99.90
12111;DHT22;6119;52.372;8.990;2023-09-19T15:03:27;21.90;99.90
12111;DHT22;6119;52.372;8.990;2023-09-19T15:06:16;22.00;99.90
12111;DHT22;6119;52.372;8.990;2023-09-19T15:09:04;22.10;99.90
12111;DHT22;6119;52.372;8.990;2023-09-19T15:11:54;22.10;99.90
12111;DHT22;6119;52.372;8.990;2023-09-19T15:14:41;21.80;99.90
12111;DHT22;6119;52.372;8.990;2023-09-19T15:17:28;21.50;99.90
12111;DHT22;6119;52.372;8.990;2023-09-19T15:20:17;21.40;99.90
12111;DHT22;6119;52.372;8.990;2023-09-19T15:23:03;21.50;99.90
12111;DHT22;6119;52.372;8.990;2023-09-19T15:25:50;21.30;99.90
12111;DHT22;6119;52.372;8.990;2023-09-19T15:28:39;21.10;99.90
12111;DHT22;6119;52.372;8.990;2023-09-19T15:31:27;21.20;99.90
12111;DHT22;6119;52.372;8.990;2023-09-19T15:34:14;21.10;99.90
12111;DHT22;6119;52.372;8.990;2023-09-19T15:37:03;21.00;99.90
12111;DHT22;6119;52.372;8.990;2023-09-19T15:39:50;20.90;99.90
12111;DHT22;6119;52.372;8.990;2023-09-19T15:42:37;20.90;99.90
12111;DHT22;6119;52.372;8.990;2023-09-19T15:45:24;20.90;99.90
12111;DHT22;6119;52.372;8.990;2023-09-19T15:48:12;20.90;99.90
12111;DHT22;6119;52.372;8.990;2023-09-19T15:51:03;20.80;99.90
12111;DHT22;6119;52.372;8.990;2023-09-19T15:53:52;20.80;99.90
12111;DHT22;6119;52.372;8.990;2023-09-19T15:56:40;20.90;99.90
12111;DHT22;6119;52.372;8.990;2023-09-19T15:59:27;20.90;99.90
12111;DHT22;6119;52.372;8.990;2023-09-19T16:02:15;20.80;99.90
12111;DHT22;6119;52.372;8.990;2023-09-19T16:05:03;20.80;99.90
12111;DHT22;6119;52.372;8.990;2023-09-19T16:07:52;20.80;99.90
12111;DHT22;6119;52.372;8.990;2023-09-19T16:10:40;20.80;99.90
12111;DHT22;6119;52.372;8.990;2023-09-19T16:13:27;20.70;99.90
12111;DHT22;6119;52.372;8.990;2023-09-19T16:16:15;20.60;99.90
12111;DHT22;6119;52.372;8.990;2023-09-19T16:19:02;20.60;99.90
12111;DHT22;6119;52.372;8.990;2023-09-19T16:21:51;20.60;99.90
12111;DHT22;6119;52.372;8.990;2023-09-19T16:24:37;20.60;99.90
12111;DHT22;6119;52.372;8.990;2023-09-19T16:27:26;20.50;99.90
12111;DHT22;6119;52.372;8.990;2023-09-19T16:30:13;20.50;99.90
12111;DHT22;6119;52.372;8.990;2023-09-19T16:33:01;20.40;99.90
12111;DHT22;6119;52.372;8.990;2023-09-19T16:35:49;20.40;99.90
12111;DHT22;6119;52.372;8.990;2023-09-19T16:38:37;20.40;99.90
12111;DHT22;6119;52.372;8.990;2023-09-19T16:41:24;20.40;99.90
12111;DHT22;6119;52.372;8.990;2023-09-19T16:44:13;20.30;99.90
12111;DHT22;6119;52.372;8.990;2023-09-19T16:47:01;20.30;99.90
12111;DHT22;6119;52.372;8.990;2023-09-19T16:49:48;20.20;99.90
12111;DHT22;6119;52.372;8.990;2023-09-19T16:52:35;20.20;99.90
12111;DHT22;6119;52.372;8.990;2023-09-19T16:55:22;20.20;99.90
12111;DHT22;6119;52.372;8.990;2023-09-19T16:58:09;20.20;99.90
12111;DHT22;6119;52.372;8.990;2023-09-19T17:00:57;20.10;99.90
12111;DHT22;6119;52.372;8.990;2023-09-19T17:03:44;20.10;99.90
12111;DHT22;6119;52.372;8.990;2023-09-19T17:06:32;20.10;99.90
12111;DHT22;6119;52.372;8.990;2023-09-19T17:09:18;20.10;99.90
12111;DHT22;6119;52.372;8.990;2023-09-19T17:12:06;20.10;99.90
12111;DHT22;6119;52.372;8.990;2023-09-19T17:14:53;20.10;99.90
12111;DHT22;6119;52.372;8.990;2023-09-19T17:17:42;20.00;99.90
12111;DHT22;6119;52.372;8.990;2023-09-19T17:20:28;20.00;99.90
12111;DHT22;6119;52.372;8.990;2023-09-19T17:23:15;20.00;99.90
12111;DHT22;6119;52.372;8.990;2023-09-19T17:26:04;20.00;99.90
12111;DHT22;6119;52.372;8.990;2023-09-19T17:28:52;20.00;99.90
12111;DHT22;6119;52.372;8.990;2023-09-19T17:31:40;19.90;99.90
12111;DHT22;6119;52.372;8.990;2023-09-19T17:34:28;19.90;99.90
12111;DHT22;6119;52.372;8.990;2023-09-19T17:37:15;20.00;99.90
12111;DHT22;6119;52.372;8.990;2023-09-19T17:40:02;20.00;99.90
12111;DHT22;6119;52.372;8.990;2023-09-19T17:42:50;20.00;99.90
12111;DHT22;6119;52.372;8.990;2023-09-19T17:45:36;19.90;99.90
12111;DHT22;6119;52.372;8.990;2023-09-19T17:48:23;19.90;99.90
12111;DHT22;6119;52.372;8.990;2023-09-19T17:51:13;19.90;99.90
12111;DHT22;6119;52.372;8.990;2023-09-19T17:54:02;19.80;99.90
12111;DHT22;6119;52.372;8.990;2023-09-19T17:56:50;19.90;99.90
12111;DHT22;6119;52.372;8.990;2023-09-19T17:59:37;19.80;99.90
12111;DHT22;6119;52.372;8.990;2023-09-19T18:02:24;19.80;99.90
12111;DHT22;6119;52.372;8.990;2023-09-19T18:05:11;19.80;99.90
12111;DHT22;6119;52.372;8.990;2023-09-19T18:08:03;19.80;99.90